createdAt,value
2022-10-07T00:01:10.597Z,1012.7
2022-10-07T00:02:26.888Z,1012.6
2022-10-07T00:03:42.196Z,1012.6
2022-10-07T00:04:58.491Z,1012.7
2022-10-07T00:06:14.778Z,1012.7
2022-10-07T00:07:31.067Z,1012.7
2022-10-07T00:08:47.367Z,1012.7
2022-10-07T00:10:03.657Z,1012.7
2022-10-07T00:11:19.956Z,1012.7
2022-10-07T00:12:36.248Z,1012.7
2022-10-07T00:13:52.540Z,1012.7
2022-10-07T00:16:24.149Z,1012.6
2022-10-07T00:17:39.469Z,1012.6
2022-10-07T00:18:55.758Z,1012.6
2022-10-07T00:20:12.051Z,1012.6
2022-10-07T00:21:28.342Z,1012.6
2022-10-07T00:22:44.636Z,1012.5
2022-10-07T00:24:00.937Z,1012.5
2022-10-07T00:25:17.244Z,1012.5
2022-10-07T00:26:33.527Z,1012.5
2022-10-07T00:27:48.852Z,1012.5
2022-10-07T00:29:05.148Z,1012.5
2022-10-07T00:30:20.453Z,1012.5
2022-10-07T00:31:36.735Z,1012.4
2022-10-07T00:32:53.033Z,1012.4
2022-10-07T00:34:09.346Z,1012.4
2022-10-07T00:35:25.622Z,1012.4
2022-10-07T00:36:41.926Z,1012.4
2022-10-07T00:37:58.210Z,1012.3
2022-10-07T00:39:14.507Z,1012.3
2022-10-07T00:40:30.807Z,1012.4
2022-10-07T00:41:47.103Z,1012.3
2022-10-07T00:43:02.405Z,1012.3
2022-10-07T00:44:17.727Z,1012.3
2022-10-07T00:45:34.030Z,1012.3
2022-10-07T00:46:50.305Z,1012.3
2022-10-07T00:48:06.605Z,1012.3
2022-10-07T00:49:22.897Z,1012.2
2022-10-07T00:50:39.197Z,1012.2
2022-10-07T00:51:55.489Z,1012.2
2022-10-07T00:53:11.780Z,1012.2
2022-10-07T00:54:28.075Z,1012.1
2022-10-07T00:55:44.375Z,1012.1
2022-10-07T00:58:16.970Z,1012.1
2022-10-07T01:00:49.563Z,1012.1
2022-10-07T01:02:04.872Z,1012.1
2022-10-07T01:03:20.170Z,1012.1
2022-10-07T01:04:36.480Z,1012
2022-10-07T01:05:52.764Z,1012
2022-10-07T01:07:09.072Z,1012
2022-10-07T01:08:25.367Z,1012
2022-10-07T01:09:41.651Z,1012
2022-10-07T01:10:57.946Z,1012
2022-10-07T01:12:14.236Z,1012
2022-10-07T01:13:30.534Z,1012
2022-10-07T01:14:46.821Z,1011.9
2022-10-07T01:16:03.133Z,1012
2022-10-07T01:17:19.419Z,1011.9
2022-10-07T01:18:34.736Z,1011.9
2022-10-07T01:19:50.047Z,1012
2022-10-07T01:21:06.348Z,1011.9
2022-10-07T01:23:38.927Z,1011.9
2022-10-07T01:24:55.216Z,1011.9
2022-10-07T01:26:11.517Z,1011.9
2022-10-07T01:27:27.808Z,1011.9
2022-10-07T01:28:44.098Z,1011.8
2022-10-07T01:30:00.403Z,1011.9
2022-10-07T01:31:16.693Z,1011.8
2022-10-07T01:32:32.999Z,1011.8
2022-10-07T01:33:49.289Z,1011.8
2022-10-07T01:35:05.589Z,1011.8
2022-10-07T01:36:20.894Z,1011.8
2022-10-07T01:37:37.194Z,1011.8
2022-10-07T01:38:53.468Z,1011.7
2022-10-07T01:40:09.763Z,1011.8
2022-10-07T01:41:26.060Z,1011.8
2022-10-07T01:42:42.364Z,1011.7
2022-10-07T01:43:58.666Z,1011.7
2022-10-07T01:45:13.966Z,1011.7
2022-10-07T01:46:30.260Z,1011.7
2022-10-07T01:47:46.562Z,1011.6
2022-10-07T01:49:02.868Z,1011.7
2022-10-07T01:50:19.145Z,1011.6
2022-10-07T01:51:35.443Z,1011.7
2022-10-07T01:54:08.038Z,1011.6
2022-10-07T01:55:24.322Z,1011.6
2022-10-07T01:56:40.621Z,1011.6
2022-10-07T01:57:56.917Z,1011.5
2022-10-07T01:59:13.210Z,1011.6
2022-10-07T02:00:29.507Z,1011.5
2022-10-07T02:01:44.825Z,1011.5
2022-10-07T02:03:01.105Z,1011.5
2022-10-07T02:04:17.407Z,1011.5
2022-10-07T02:05:33.710Z,1011.5
2022-10-07T02:06:49.989Z,1011.5
2022-10-07T02:08:06.297Z,1011.4
2022-10-07T02:09:22.591Z,1011.4
2022-10-07T02:10:38.880Z,1011.4
2022-10-07T02:11:55.164Z,1011.4
2022-10-07T02:13:11.474Z,1011.5
2022-10-07T02:14:27.761Z,1011.4
2022-10-07T02:18:16.638Z,1011.4
2022-10-07T02:19:31.956Z,1011.4
2022-10-07T02:20:48.245Z,1011.4
2022-10-07T02:22:03.569Z,1011.3
2022-10-07T02:23:19.853Z,1011.3
2022-10-07T02:24:36.154Z,1011.3
2022-10-07T02:25:52.450Z,1011.3
2022-10-07T02:27:08.739Z,1011.3
2022-10-07T02:28:25.040Z,1011.2
2022-10-07T02:29:41.336Z,1011.3
2022-10-07T02:33:30.224Z,1011.2
2022-10-07T02:34:46.511Z,1011.2
2022-10-07T02:36:02.803Z,1011.2
2022-10-07T02:37:18.110Z,1011.2
2022-10-07T02:39:49.727Z,1011.2
2022-10-07T02:41:06.018Z,1011.2
2022-10-07T02:42:22.320Z,1011.1
2022-10-07T02:43:38.605Z,1011.1
2022-10-07T02:44:54.909Z,1011.1
2022-10-07T02:46:11.198Z,1011.1
2022-10-07T02:47:27.486Z,1011.1
2022-10-07T02:48:43.778Z,1011.1
2022-10-07T02:50:00.090Z,1011
2022-10-07T02:51:16.369Z,1011
2022-10-07T02:52:31.689Z,1011
2022-10-07T02:53:46.991Z,1011
2022-10-07T02:55:03.293Z,1011
2022-10-07T02:56:19.599Z,1011
2022-10-07T02:57:35.894Z,1011
2022-10-07T02:58:52.170Z,1011
2022-10-07T03:00:08.465Z,1011
2022-10-07T03:02:41.060Z,1011
2022-10-07T03:05:13.644Z,1010.9
2022-10-07T03:06:29.955Z,1010.9
2022-10-07T03:07:46.240Z,1010.9
2022-10-07T03:09:01.549Z,1010.9
2022-10-07T03:10:17.850Z,1010.9
2022-10-07T03:11:34.134Z,1010.9
2022-10-07T03:12:49.455Z,1010.9
2022-10-07T03:14:05.751Z,1010.9
2022-10-07T03:15:22.044Z,1010.8
2022-10-07T03:16:38.347Z,1010.8
2022-10-07T03:17:54.628Z,1010.8
2022-10-07T03:19:10.933Z,1010.8
2022-10-07T03:20:27.233Z,1010.8
2022-10-07T03:24:16.096Z,1010.7
2022-10-07T03:25:32.399Z,1010.7
2022-10-07T03:26:48.698Z,1010.8
2022-10-07T03:28:04.994Z,1010.8
2022-10-07T03:29:20.299Z,1010.7
2022-10-07T03:30:36.595Z,1010.7
2022-10-07T03:31:52.881Z,1010.7
2022-10-07T03:33:09.192Z,1010.7
2022-10-07T03:34:25.000Z,1010.7
2022-10-07T03:36:58.077Z,1010.7
2022-10-07T03:38:14.354Z,1010.7
2022-10-07T03:40:46.958Z,1010.6
2022-10-07T03:42:03.235Z,1010.7
2022-10-07T03:43:19.535Z,1010.7
2022-10-07T03:44:35.842Z,1010.6
2022-10-07T03:45:51.136Z,1010.6
2022-10-07T03:47:07.429Z,1010.6
2022-10-07T03:49:40.020Z,1010.6
2022-10-07T03:50:56.331Z,1010.5
2022-10-07T03:52:12.617Z,1010.6
2022-10-07T03:53:28.906Z,1010.6
2022-10-07T03:54:45.216Z,1010.5
2022-10-07T03:56:01.508Z,1010.5
2022-10-07T03:57:17.787Z,1010.5
2022-10-07T03:58:34.098Z,1010.5
2022-10-07T03:59:50.377Z,1010.5
2022-10-07T04:01:06.680Z,1010.5
2022-10-07T04:02:22.966Z,1010.4
2022-10-07T04:03:38.275Z,1010.4
2022-10-07T04:04:54.572Z,1010.4
2022-10-07T04:06:10.868Z,1010.4
2022-10-07T04:07:26.180Z,1010.4
2022-10-07T04:08:41.507Z,1010.4
2022-10-07T04:11:14.078Z,1010.4
2022-10-07T04:12:30.390Z,1010.4
2022-10-07T04:13:46.680Z,1010.4
2022-10-07T04:15:02.962Z,1010.4
2022-10-07T04:16:19.266Z,1010.3
2022-10-07T04:17:35.564Z,1010.4
2022-10-07T04:18:51.845Z,1010.3
2022-10-07T04:20:08.159Z,1010.4
2022-10-07T04:21:24.448Z,1010.3
2022-10-07T04:22:40.738Z,1010.3
2022-10-07T04:23:57.028Z,1010.3
2022-10-07T04:25:12.355Z,1010.3
2022-10-07T04:26:28.631Z,1010.3
2022-10-07T04:27:44.940Z,1010.2
2022-10-07T04:30:17.519Z,1010.2
2022-10-07T04:31:32.840Z,1010.2
2022-10-07T04:32:48.145Z,1010.2
2022-10-07T04:34:04.434Z,1010.2
2022-10-07T04:35:20.741Z,1010.2
2022-10-07T04:36:37.029Z,1010.2
2022-10-07T04:37:53.338Z,1010.1
2022-10-07T04:39:09.617Z,1010.2
2022-10-07T04:40:25.875Z,1010.2
2022-10-07T04:41:42.151Z,1010.1
2022-10-07T04:42:58.426Z,1010.1
2022-10-07T04:44:14.685Z,1010.1
2022-10-07T04:45:29.942Z,1010.2
2022-10-07T04:46:45.259Z,1010.1
2022-10-07T04:48:01.508Z,1010.1
2022-10-07T04:49:17.755Z,1010.1
2022-10-07T04:53:06.584Z,1010
2022-10-07T04:54:22.828Z,1010
2022-10-07T04:55:39.082Z,1010.1
2022-10-07T04:56:55.308Z,1010
2022-10-07T04:58:11.561Z,1010
2022-10-07T04:59:27.793Z,1010
2022-10-07T05:00:44.028Z,1010
2022-10-07T05:01:59.297Z,1010
2022-10-07T05:03:14.559Z,1010
2022-10-07T05:05:47.035Z,1010
2022-10-07T05:07:03.279Z,1010
2022-10-07T05:08:19.518Z,1010
2022-10-07T05:09:35.750Z,1010
2022-10-07T05:10:51.997Z,1010
2022-10-07T05:12:08.237Z,1010
2022-10-07T05:13:24.471Z,1010
2022-10-07T05:14:40.731Z,1010
2022-10-07T05:15:56.950Z,1009.9
2022-10-07T05:17:13.197Z,1009.9
2022-10-07T05:18:29.445Z,1009.9
2022-10-07T05:19:44.000Z,1009.9
2022-10-07T05:21:00.936Z,1009.9
2022-10-07T05:22:17.177Z,1009.8
2022-10-07T05:23:33.411Z,1009.9
2022-10-07T05:24:49.669Z,1009.9
2022-10-07T05:26:05.902Z,1009.8
2022-10-07T05:27:22.132Z,1009.8
2022-10-07T05:28:38.385Z,1009.9
2022-10-07T05:31:09.892Z,1009.9
2022-10-07T05:32:25.151Z,1009.9
2022-10-07T05:33:40.399Z,1009.9
2022-10-07T05:34:56.638Z,1009.8
2022-10-07T05:36:12.890Z,1009.8
2022-10-07T05:37:29.123Z,1009.8
2022-10-07T05:38:45.358Z,1009.7
2022-10-07T05:40:01.604Z,1009.7
2022-10-07T05:41:17.846Z,1009.8
2022-10-07T05:42:34.084Z,1009.8
2022-10-07T05:43:50.326Z,1009.8
2022-10-07T05:45:06.560Z,1009.8
2022-10-07T05:46:21.819Z,1009.8
2022-10-07T05:47:37.087Z,1009.7
2022-10-07T05:48:53.329Z,1009.8
2022-10-07T05:50:09.561Z,1009.7
2022-10-07T05:51:25.810Z,1009.7
2022-10-07T05:52:42.056Z,1009.8
2022-10-07T05:53:58.283Z,1009.7
2022-10-07T05:55:14.520Z,1009.8
2022-10-07T05:56:30.779Z,1009.7
2022-10-07T05:57:47.004Z,1009.7
2022-10-07T05:59:03.253Z,1009.7
2022-10-07T06:00:18.512Z,1009.8
2022-10-07T06:01:34.744Z,1009.7
2022-10-07T06:02:50.999Z,1009.8
2022-10-07T06:04:07.227Z,1009.7
2022-10-07T06:05:23.467Z,1009.7
2022-10-07T06:06:39.720Z,1009.7
2022-10-07T06:09:12.198Z,1009.7
2022-10-07T06:10:28.432Z,1009.8
2022-10-07T06:11:44.679Z,1009.7
2022-10-07T06:13:00.907Z,1009.6
2022-10-07T06:14:17.168Z,1009.7
2022-10-07T06:15:33.409Z,1009.7
2022-10-07T06:16:48.651Z,1009.6
2022-10-07T06:18:04.887Z,1009.6
2022-10-07T06:20:37.381Z,1009.6
2022-10-07T06:21:53.614Z,1009.7
2022-10-07T06:23:09.860Z,1009.6
2022-10-07T06:24:26.102Z,1009.6
2022-10-07T06:25:42.333Z,1009.6
2022-10-07T06:26:58.572Z,1009.6
2022-10-07T06:28:14.827Z,1009.6
2022-10-07T06:29:31.053Z,1009.6
2022-10-07T06:30:47.302Z,1009.6
2022-10-07T06:32:03.534Z,1009.5
2022-10-07T06:33:18.797Z,1009.5
2022-10-07T06:34:35.037Z,1009.5
2022-10-07T06:35:51.279Z,1009.5
2022-10-07T06:37:07.510Z,1009.5
2022-10-07T06:38:23.755Z,1009.5
2022-10-07T06:39:39.997Z,1009.5
2022-10-07T06:40:56.246Z,1009.5
2022-10-07T06:42:12.489Z,1009.5
2022-10-07T06:43:28.730Z,1009.5
2022-10-07T06:44:44.952Z,1009.5
2022-10-07T06:46:01.211Z,1009.5
2022-10-07T06:47:17.441Z,1009.5
2022-10-07T06:48:33.683Z,1009.5
2022-10-07T06:49:48.930Z,1009.5
2022-10-07T06:51:05.169Z,1009.4
2022-10-07T06:52:21.413Z,1009.5
2022-10-07T06:53:37.653Z,1009.4
2022-10-07T06:54:53.892Z,1009.4
2022-10-07T06:56:10.135Z,1009.4
2022-10-07T06:57:26.378Z,1009.4
2022-10-07T06:58:42.618Z,1009.4
2022-10-07T06:59:58.872Z,1009.4
2022-10-07T07:01:15.095Z,1009.3
2022-10-07T07:02:31.349Z,1009.4
2022-10-07T07:03:47.595Z,1009.4
2022-10-07T07:06:20.068Z,1009.4
2022-10-07T07:07:35.319Z,1009.5
2022-10-07T07:08:51.564Z,1009.4
2022-10-07T07:10:07.797Z,1009.4
2022-10-07T07:11:24.049Z,1009.4
2022-10-07T07:13:56.532Z,1009.4
2022-10-07T07:15:12.764Z,1009.4
2022-10-07T07:16:29.004Z,1009.4
2022-10-07T07:17:45.252Z,1009.4
2022-10-07T07:19:01.484Z,1009.4
2022-10-07T07:20:17.729Z,1009.4
2022-10-07T07:21:33.972Z,1009.4
2022-10-07T07:22:50.215Z,1009.4
2022-10-07T07:24:05.463Z,1009.4
2022-10-07T07:25:21.702Z,1009.4
2022-10-07T07:26:37.943Z,1009.4
2022-10-07T07:27:54.181Z,1009.4
2022-10-07T07:29:10.424Z,1009.4
2022-10-07T07:31:42.913Z,1009.4
2022-10-07T07:32:58.174Z,1009.4
2022-10-07T07:34:13.417Z,1009.4
2022-10-07T07:35:29.674Z,1009.3
2022-10-07T07:38:02.138Z,1009.4
2022-10-07T07:39:18.383Z,1009.3
2022-10-07T07:40:34.632Z,1009.3
2022-10-07T07:41:50.865Z,1009.3
2022-10-07T07:43:07.097Z,1009.3
2022-10-07T07:44:23.350Z,1009.3
2022-10-07T07:45:39.595Z,1009.3
2022-10-07T07:46:55.835Z,1009.3
2022-10-07T07:48:12.073Z,1009.3
2022-10-07T07:49:28.310Z,1009.4
2022-10-07T07:50:44.539Z,1009.4
2022-10-07T07:51:59.806Z,1009.4
2022-10-07T07:53:16.035Z,1009.4
2022-10-07T07:54:32.282Z,1009.4
2022-10-07T07:55:48.528Z,1009.4
2022-10-07T07:57:04.762Z,1009.3
2022-10-07T07:58:21.006Z,1009.3
2022-10-07T07:59:37.249Z,1009.3
2022-10-07T08:00:52.513Z,1009.3
2022-10-07T08:02:07.774Z,1009.3
2022-10-07T08:03:24.015Z,1009.3
2022-10-07T08:04:40.250Z,1009.3
2022-10-07T08:05:56.489Z,1009.4
2022-10-07T08:07:12.727Z,1009.3
2022-10-07T08:08:28.971Z,1009.3
2022-10-07T08:09:45.200Z,1009.3
2022-10-07T08:11:01.451Z,1009.3
2022-10-07T08:12:17.691Z,1009.3
2022-10-07T08:16:06.405Z,1009.3
2022-10-07T08:17:21.673Z,1009.3
2022-10-07T08:18:37.913Z,1009.3
2022-10-07T08:21:09.417Z,1009.1
2022-10-07T08:22:25.658Z,1009.2
2022-10-07T08:23:41.880Z,1009.2
2022-10-07T08:24:58.120Z,1009.2
2022-10-07T08:26:14.375Z,1009.2
2022-10-07T08:28:46.841Z,1009.1
2022-10-07T08:31:19.000Z,1009.1
2022-10-07T08:32:35.570Z,1009.1
2022-10-07T08:33:51.807Z,1009.1
2022-10-07T08:35:08.041Z,1009.1
2022-10-07T08:37:39.556Z,1009.1
2022-10-07T08:38:54.820Z,1009
2022-10-07T08:41:26.312Z,1009
2022-10-07T08:42:42.546Z,1009
2022-10-07T08:45:15.041Z,1009
2022-10-07T08:46:31.278Z,1008.9
2022-10-07T08:47:47.510Z,1009
2022-10-07T08:49:03.757Z,1008.9
2022-10-07T08:50:19.989Z,1009
2022-10-07T08:51:36.235Z,1009
2022-10-07T08:54:08.719Z,1008.9
2022-10-07T08:55:24.944Z,1008.9
2022-10-07T08:56:41.191Z,1008.9
2022-10-07T08:57:57.429Z,1008.9
2022-10-07T09:00:28.930Z,1008.9
2022-10-07T09:01:45.167Z,1008.9
2022-10-07T09:03:01.412Z,1008.8
2022-10-07T09:04:17.659Z,1008.8
2022-10-07T09:06:50.138Z,1008.7
2022-10-07T09:09:22.606Z,1008.7
2022-10-07T09:10:38.859Z,1008.8
2022-10-07T09:11:55.086Z,1008.7
2022-10-07T09:13:11.331Z,1008.7
2022-10-07T09:14:27.583Z,1008.7
2022-10-07T09:15:42.824Z,1008.7
2022-10-07T09:16:59.072Z,1008.7
2022-10-07T09:19:31.549Z,1008.6
2022-10-07T09:20:47.792Z,1008.6
2022-10-07T09:22:04.030Z,1008.6
2022-10-07T09:23:20.267Z,1008.6
2022-10-07T09:24:36.515Z,1008.7
2022-10-07T09:25:52.743Z,1008.6
2022-10-07T09:27:08.987Z,1008.6
2022-10-07T09:28:25.234Z,1008.5
2022-10-07T09:30:57.705Z,1008.6
2022-10-07T09:32:13.956Z,1008.5
2022-10-07T09:33:29.214Z,1008.5
2022-10-07T09:34:45.450Z,1008.6
2022-10-07T09:36:01.698Z,1008.6
2022-10-07T09:38:34.167Z,1008.5
2022-10-07T09:39:50.414Z,1008.5
2022-10-07T09:41:06.656Z,1008.5
2022-10-07T09:42:22.885Z,1008.5
2022-10-07T09:43:39.129Z,1008.5
2022-10-07T09:46:11.604Z,1008.5
2022-10-07T09:47:27.854Z,1008.4
2022-10-07T09:48:44.083Z,1008.5
2022-10-07T09:50:00.335Z,1008.4
2022-10-07T09:51:15.587Z,1008.4
2022-10-07T09:53:48.075Z,1008.4
2022-10-07T09:55:04.320Z,1008.4
2022-10-07T09:56:20.545Z,1008.4
2022-10-07T09:57:36.792Z,1008.3
2022-10-07T10:01:25.515Z,1008.3
2022-10-07T10:03:57.987Z,1008.3
2022-10-07T10:05:14.230Z,1008.3
2022-10-07T10:06:30.467Z,1008.3
2022-10-07T10:09:01.974Z,1008.3
2022-10-07T10:10:18.208Z,1008.2
2022-10-07T10:11:34.448Z,1008.2
2022-10-07T10:12:50.690Z,1008.2
2022-10-07T10:14:06.932Z,1008.1
2022-10-07T10:15:23.165Z,1008.1
2022-10-07T10:16:38.428Z,1008.1
2022-10-07T10:17:54.682Z,1008.1
2022-10-07T10:19:10.909Z,1008.1
2022-10-07T10:20:27.161Z,1008.1
2022-10-07T10:21:43.391Z,1008
2022-10-07T10:22:59.634Z,1008
2022-10-07T10:24:15.869Z,1008
2022-10-07T10:25:32.107Z,1008
2022-10-07T10:26:48.351Z,1008
2022-10-07T10:28:04.584Z,1008
2022-10-07T10:29:20.835Z,1007.9
2022-10-07T10:31:52.332Z,1007.9
2022-10-07T10:33:07.582Z,1007.8
2022-10-07T10:34:23.842Z,1007.8
2022-10-07T10:35:40.079Z,1007.7
2022-10-07T10:36:55.346Z,1007.8
2022-10-07T10:38:11.572Z,1007.8
2022-10-07T10:39:27.808Z,1007.7
2022-10-07T10:40:44.063Z,1007.7
2022-10-07T10:41:59.303Z,1007.7
2022-10-07T10:43:15.559Z,1007.7
2022-10-07T10:44:31.797Z,1007.7
2022-10-07T10:45:48.034Z,1007.6
2022-10-07T10:50:53.002Z,1007.6
2022-10-07T10:52:09.233Z,1007.5
2022-10-07T10:53:25.464Z,1007.5
2022-10-07T10:54:41.720Z,1007.4
2022-10-07T10:55:56.981Z,1007.5
2022-10-07T10:57:12.219Z,1007.5
2022-10-07T10:58:28.474Z,1007.4
2022-10-07T10:59:44.712Z,1007.4
2022-10-07T11:01:00.946Z,1007.4
2022-10-07T11:02:17.187Z,1007.3
2022-10-07T11:03:33.423Z,1007.4
2022-10-07T11:04:49.668Z,1007.3
2022-10-07T11:06:05.907Z,1007.3
2022-10-07T11:07:22.157Z,1007.2
2022-10-07T11:08:38.385Z,1007.2
2022-10-07T11:09:53.658Z,1007.2
2022-10-07T11:11:09.896Z,1007.2
2022-10-07T11:13:41.380Z,1007.2
2022-10-07T11:14:57.638Z,1007.1
2022-10-07T11:16:13.868Z,1007
2022-10-07T11:17:30.118Z,1007
2022-10-07T11:18:46.341Z,1007
2022-10-07T11:20:02.594Z,1007
2022-10-07T11:21:18.831Z,1006.9
2022-10-07T11:22:35.066Z,1007
2022-10-07T11:23:51.303Z,1006.9
2022-10-07T11:26:23.800Z,1006.8
2022-10-07T11:27:40.024Z,1006.8
2022-10-07T11:28:56.277Z,1006.8
2022-10-07T11:30:12.511Z,1006.8
2022-10-07T11:31:27.772Z,1006.8
2022-10-07T11:32:44.009Z,1006.7
2022-10-07T11:33:59.270Z,1006.7
2022-10-07T11:35:15.506Z,1006.7
2022-10-07T11:36:31.738Z,1006.6
2022-10-07T11:37:47.990Z,1006.6
2022-10-07T11:39:04.219Z,1006.5
2022-10-07T11:42:52.945Z,1006.4
2022-10-07T11:44:09.191Z,1006.4
2022-10-07T11:45:25.433Z,1006.4
2022-10-07T11:47:57.903Z,1006.3
2022-10-07T11:49:14.136Z,1006.4
2022-10-07T11:50:29.406Z,1006.4
2022-10-07T11:51:45.644Z,1006.3
2022-10-07T11:53:01.876Z,1006.3
2022-10-07T11:54:18.127Z,1006.3
2022-10-07T11:55:34.346Z,1006.3
2022-10-07T11:56:50.593Z,1006.2
2022-10-07T11:58:06.835Z,1006.2
2022-10-07T11:59:23.081Z,1006.2
2022-10-07T12:00:39.326Z,1006.2
2022-10-07T12:01:55.556Z,1006.2
2022-10-07T12:03:11.806Z,1006.2
2022-10-07T12:04:28.000Z,1006.1
2022-10-07T12:07:00.509Z,1006.1
2022-10-07T12:08:16.753Z,1006
2022-10-07T12:09:33.000Z,1006
2022-10-07T12:10:48.244Z,1006.1
2022-10-07T12:12:04.488Z,1006
2022-10-07T12:13:20.731Z,1006
2022-10-07T12:14:35.996Z,1006
2022-10-07T12:15:51.242Z,1005.9
2022-10-07T12:17:07.481Z,1006
2022-10-07T12:18:23.729Z,1005.9
2022-10-07T12:20:56.216Z,1005.9
2022-10-07T12:22:12.451Z,1005.9
2022-10-07T12:23:28.692Z,1005.8
2022-10-07T12:26:01.163Z,1005.8
2022-10-07T12:27:17.414Z,1005.7
2022-10-07T12:28:33.650Z,1005.7
2022-10-07T12:29:49.886Z,1005.7
2022-10-07T12:31:05.151Z,1005.6
2022-10-07T12:32:21.388Z,1005.6
2022-10-07T12:33:36.643Z,1005.6
2022-10-07T12:34:52.875Z,1005.6
2022-10-07T12:36:09.116Z,1005.6
2022-10-07T12:37:25.357Z,1005.6
2022-10-07T12:38:41.597Z,1005.6
2022-10-07T12:39:57.844Z,1005.5
2022-10-07T12:42:30.319Z,1005.5
2022-10-07T12:45:02.805Z,1005.4
2022-10-07T12:48:51.506Z,1005.3
2022-10-07T12:50:06.762Z,1005.3
2022-10-07T12:51:23.018Z,1005.3
2022-10-07T12:52:39.260Z,1005.2
2022-10-07T12:55:11.732Z,1005.2
2022-10-07T12:56:27.971Z,1005.2
2022-10-07T12:57:44.000Z,1005.2
2022-10-07T12:59:00.452Z,1005.2
2022-10-07T13:00:16.692Z,1005.2
2022-10-07T13:01:32.922Z,1005.2
2022-10-07T13:02:49.163Z,1005.2
2022-10-07T13:04:05.409Z,1005.1
2022-10-07T13:05:21.640Z,1005.1
2022-10-07T13:06:36.909Z,1005.2
2022-10-07T13:07:53.140Z,1005.1
2022-10-07T13:09:09.373Z,1005
2022-10-07T13:11:41.872Z,1005
2022-10-07T13:12:58.093Z,1005
2022-10-07T13:14:14.347Z,1005
2022-10-07T13:15:30.575Z,1005
2022-10-07T13:16:46.820Z,1005
2022-10-07T13:18:03.056Z,1005
2022-10-07T13:19:19.306Z,1005
2022-10-07T13:20:35.550Z,1005
2022-10-07T13:21:50.809Z,1005
2022-10-07T13:23:07.039Z,1004.9
2022-10-07T13:25:39.525Z,1004.9
2022-10-07T13:26:55.763Z,1004.9
2022-10-07T13:28:11.010Z,1004.9
2022-10-07T13:29:27.250Z,1004.8
2022-10-07T13:30:43.494Z,1004.8
2022-10-07T13:31:59.735Z,1004.8
2022-10-07T13:33:15.969Z,1004.8
2022-10-07T13:34:32.208Z,1004.7
2022-10-07T13:35:48.463Z,1004.7
2022-10-07T13:37:04.683Z,1004.7
2022-10-07T13:38:20.934Z,1004.7
2022-10-07T13:39:37.173Z,1004.7
2022-10-07T13:42:09.661Z,1004.6
2022-10-07T13:43:24.908Z,1004.7
2022-10-07T13:44:40.172Z,1004.6
2022-10-07T13:45:56.417Z,1004.6
2022-10-07T13:47:12.648Z,1004.6
2022-10-07T13:48:28.891Z,1004.5
2022-10-07T13:49:45.138Z,1004.5
2022-10-07T13:51:01.366Z,1004.5
2022-10-07T13:52:17.603Z,1004.5
2022-10-07T13:53:33.850Z,1004.5
2022-10-07T13:54:50.087Z,1004.4
2022-10-07T13:56:06.320Z,1004.4
2022-10-07T13:57:22.565Z,1004.4
2022-10-07T13:58:38.805Z,1004.4
2022-10-07T13:59:54.063Z,1004.4
2022-10-07T14:01:10.314Z,1004.4
2022-10-07T14:02:26.555Z,1004.3
2022-10-07T14:03:42.777Z,1004.3
2022-10-07T14:04:59.016Z,1004.3
2022-10-07T14:06:14.275Z,1004.3
2022-10-07T14:07:30.509Z,1004.3
2022-10-07T14:08:46.759Z,1004.2
2022-10-07T14:10:03.001Z,1004.2
2022-10-07T14:11:19.245Z,1004.2
2022-10-07T14:12:35.484Z,1004.2
2022-10-07T14:13:51.718Z,1004.2
2022-10-07T14:15:06.972Z,1004.2
2022-10-07T14:16:23.222Z,1004.1
2022-10-07T14:17:38.476Z,1004.1
2022-10-07T14:20:10.956Z,1004.1
2022-10-07T14:21:27.203Z,1004.1
2022-10-07T14:23:59.667Z,1004
2022-10-07T14:26:32.159Z,1004
2022-10-07T14:27:48.401Z,1004
2022-10-07T14:29:04.626Z,1004
2022-10-07T14:30:20.870Z,1004
2022-10-07T14:31:36.128Z,1004
2022-10-07T14:32:51.403Z,1004
2022-10-07T14:34:06.644Z,1003.9
2022-10-07T14:36:39.124Z,1003.9
2022-10-07T14:37:55.360Z,1003.9
2022-10-07T14:39:11.604Z,1003.9
2022-10-07T14:40:27.846Z,1003.9
2022-10-07T14:43:00.334Z,1003.9
2022-10-07T14:44:16.557Z,1003.9
2022-10-07T14:45:32.802Z,1003.8
2022-10-07T14:46:49.036Z,1003.8
2022-10-07T14:48:05.283Z,1003.8
2022-10-07T14:51:53.012Z,1003.8
2022-10-07T14:53:08.279Z,1003.8
2022-10-07T14:55:40.770Z,1003.7
2022-10-07T14:58:12.252Z,1003.7
2022-10-07T14:59:28.493Z,1003.6
2022-10-07T15:00:44.745Z,1003.6
2022-10-07T15:02:00.986Z,1003.6
2022-10-07T15:03:17.215Z,1003.6
2022-10-07T15:07:05.928Z,1003.4
2022-10-07T15:08:22.181Z,1003.5
2022-10-07T15:09:38.416Z,1003.4
2022-10-07T15:10:54.645Z,1003.4
2022-10-07T15:12:10.901Z,1003.4
2022-10-07T15:13:27.135Z,1003.4
2022-10-07T15:14:43.380Z,1003.3
2022-10-07T15:15:59.618Z,1003.3
2022-10-07T15:17:15.857Z,1003.3
2022-10-07T15:18:31.119Z,1003.3
2022-10-07T15:19:47.361Z,1003.3
2022-10-07T15:21:03.591Z,1003.3
2022-10-07T15:22:19.825Z,1003.3
2022-10-07T15:23:36.071Z,1003.3
2022-10-07T15:24:52.300Z,1003.3
2022-10-07T15:26:08.552Z,1003.2
2022-10-07T15:28:41.018Z,1003.2
2022-10-07T15:29:57.269Z,1003.2
2022-10-07T15:32:29.755Z,1003.1
2022-10-07T15:33:45.983Z,1003.1
2022-10-07T15:35:01.239Z,1003.1
2022-10-07T15:36:17.490Z,1003.1
2022-10-07T15:37:33.716Z,1003.1
2022-10-07T15:38:49.960Z,1003.1
2022-10-07T15:40:06.192Z,1003.1
2022-10-07T15:41:22.443Z,1003.1
2022-10-07T15:45:11.160Z,1003.1
2022-10-07T15:46:27.410Z,1003.1
2022-10-07T15:47:43.636Z,1003.1
2022-10-07T15:48:59.887Z,1003.1
2022-10-07T15:51:32.357Z,1003.1
2022-10-07T15:52:48.598Z,1003.1
2022-10-07T15:54:03.848Z,1003.1
2022-10-07T15:55:20.100Z,1003
2022-10-07T15:57:52.577Z,1003
2022-10-07T15:59:08.808Z,1003
2022-10-07T16:00:25.044Z,1003
2022-10-07T16:01:41.292Z,1003
2022-10-07T16:02:57.525Z,1003
2022-10-07T16:04:13.775Z,1003
2022-10-07T16:06:46.240Z,1003
2022-10-07T16:08:02.495Z,1003
2022-10-07T16:10:34.957Z,1003
2022-10-07T16:11:51.213Z,1003
2022-10-07T16:14:23.677Z,1003
2022-10-07T16:15:38.934Z,1003
2022-10-07T16:16:55.185Z,1003.1
2022-10-07T16:18:11.416Z,1003
2022-10-07T16:19:27.670Z,1003
2022-10-07T16:23:16.372Z,1002.9
2022-10-07T16:24:32.619Z,1002.9
2022-10-07T16:25:48.856Z,1002.9
2022-10-07T16:27:05.106Z,1002.9
2022-10-07T16:28:21.332Z,1002.9
2022-10-07T16:29:37.576Z,1002.9
2022-10-07T16:30:53.819Z,1002.9
2022-10-07T16:32:09.080Z,1002.9
2022-10-07T16:33:25.326Z,1002.9
2022-10-07T16:34:41.551Z,1002.8
2022-10-07T16:35:57.805Z,1002.9
2022-10-07T16:37:14.033Z,1002.9
2022-10-07T16:38:30.278Z,1002.9
2022-10-07T16:39:46.510Z,1002.9
2022-10-07T16:41:02.750Z,1002.8
2022-10-07T16:42:18.995Z,1002.9
2022-10-07T16:44:51.474Z,1002.9
2022-10-07T16:46:07.718Z,1002.9
2022-10-07T16:47:23.960Z,1002.7
2022-10-07T16:48:40.203Z,1002.8
2022-10-07T16:49:56.445Z,1002.8
2022-10-07T16:52:28.923Z,1002.8
2022-10-07T16:53:44.176Z,1002.7
2022-10-07T16:55:00.420Z,1002.7
2022-10-07T16:56:16.664Z,1002.7
2022-10-07T16:57:32.898Z,1002.7
2022-10-07T16:58:49.138Z,1002.7
2022-10-07T17:00:05.381Z,1002.7
2022-10-07T17:01:21.617Z,1002.6
2022-10-07T17:02:37.855Z,1002.7
2022-10-07T17:03:54.088Z,1002.7
2022-10-07T17:05:10.328Z,1002.7
2022-10-07T17:06:26.574Z,1002.7
2022-10-07T17:07:42.824Z,1002.7
2022-10-07T17:08:59.050Z,1002.8
2022-10-07T17:10:14.362Z,1002.7
2022-10-07T17:11:30.663Z,1002.8
2022-10-07T17:12:45.983Z,1002.7
2022-10-07T17:15:18.561Z,1002.7
2022-10-07T17:16:33.869Z,1002.7
2022-10-07T17:17:50.167Z,1002.7
2022-10-07T17:19:06.458Z,1002.7
2022-10-07T17:20:22.768Z,1002.7
2022-10-07T17:21:39.045Z,1002.6
2022-10-07T17:22:55.357Z,1002.6
2022-10-07T17:24:11.637Z,1002.6
2022-10-07T17:25:27.940Z,1002.6
2022-10-07T17:26:44.232Z,1002.6
2022-10-07T17:27:59.543Z,1002.6
2022-10-07T17:29:14.858Z,1002.6
2022-10-07T17:30:31.154Z,1002.6
2022-10-07T17:31:47.438Z,1002.6
2022-10-07T17:33:03.732Z,1002.6
2022-10-07T17:34:20.037Z,1002.7
2022-10-07T17:35:36.329Z,1002.6
2022-10-07T17:36:52.621Z,1002.6
2022-10-07T17:39:25.205Z,1002.6
2022-10-07T17:40:41.507Z,1002.6
2022-10-07T17:41:57.799Z,1002.6
2022-10-07T17:43:14.102Z,1002.6
2022-10-07T17:44:30.388Z,1002.6
2022-10-07T17:45:45.704Z,1002.6
2022-10-07T17:47:01.990Z,1002.6
2022-10-07T17:49:34.570Z,1002.6
2022-10-07T17:50:49.888Z,1002.6
2022-10-07T17:52:06.197Z,1002.5
2022-10-07T17:53:21.501Z,1002.5
2022-10-07T17:54:37.787Z,1002.5
2022-10-07T17:55:54.083Z,1002.6
2022-10-07T17:57:10.373Z,1002.6
2022-10-07T17:58:26.674Z,1002.6
2022-10-07T17:59:42.972Z,1002.6
2022-10-07T18:02:15.566Z,1002.6